Flight Track Log - Related Links

Times and Time Zones

All times are in EDT time to prevent confusion due to time zone crossing. See the MXF127 flight status page for this flight to view local times or setup timezone preferences in your user account.

Time Position Orientation Groundspeed Altitude Reporting Facility
EDT Latitude Longitude Course Direction KTS MPH feet Rate Location/Type
Sat 02:47:17 PM 39.5811 -84.2292 178° South 140 161 1,600  Level Indianapolis Center
Sat 02:48:05 PM 39.5478 -84.2275 178° South 154 177 3,000 757 Climbing Indianapolis Center
Sat 02:49:08 PM 39.5000 -84.2214 174° South 163 188 3,000  Level Indianapolis Center
Sat 02:50:10 PM 39.4494 -84.2150 174° South 171 197 3,000 -48 Level Indianapolis Center
Sat 02:51:12 PM 39.4092 -84.2475 212° Southwest 190 219 2,900  Descending Indianapolis Center
Sat 02:52:13 PM 39.3689 -84.2861 217° Southwest 182 209 3,000 49 Climbing Indianapolis Center
Sat 02:53:15 PM 39.3206 -84.3078 199° South 181 208 3,000  Level Indianapolis Center
Sat 02:54:17 PM 39.2819 -84.3253 199° South 158 182 3,000 -36 Level Indianapolis Center
Sat 02:56:01 PM 39.2167 -84.3500 196° South 107 123 2,900 -145 Descending Cincinnati TRACON
Sat 02:56:21 PM 39.2156 -84.3578 260° West 128 147 2,700 -632 Descending Indianapolis Center
Sat 02:57:55 PM 39.1667 -84.3833 202° Southwest 109 125 1,700 -623 Descending Cincinnati TRACON
Sat 02:58:55 PM 39.1333 -84.4000 201° Southwest 119 137 1,100 -36 Descending Cincinnati TRACON
Sat 03:00:00 PM 39.1985 -84.3639 23° Northeast  Level FlightAware Approximate
Sat 03:00:43 PM 39.0833 -84.4167 23° Northeast 128 147 1,600  Level Cincinnati TRACON
Sat 03:01:43 PM 39.0500 -84.4167 180° South 171 197 4,000 1,438 Climbing Cincinnati TRACON
Sat 03:02:19 PM 39.0561 -84.3914 73° East 235 270 3,900 -61 Descending Indianapolis Center
Sat 03:03:21 PM 39.1106 -84.3647 21° North 206 237 3,900 50 Level Indianapolis Center
Sat 03:04:20 PM 39.1756 -84.3483 11° North 220 253 4,000 50 Climbing Indianapolis Center
Sat 03:05:21 PM 39.2336 -84.3292 14° North 219 252 4,000  Level Indianapolis Center
Sat 03:06:27 PM 39.3003 -84.3028 17° North 219 252 4,000  Level Indianapolis Center
Sat 03:07:23 PM 39.3503 -84.2853 15° North 215 247 4,000  Level Indianapolis Center
Sat 03:08:24 PM 39.4044 -84.2628 18° North 191 220 4,000  Level Indianapolis Center
Sat 03:09:33 PM 39.4589 -84.2408 17° North 193 222 4,000 1,649 Level Indianapolis Center
Sat 03:10:35 PM 39.4708 -84.1850 74° East 195 224 7,600 2,124 Climbing Indianapolis Center
Sat 03:11:26 PM 39.4617 -84.1217 101° East 208 239 8,000 566 Climbing Indianapolis Center
Sat 03:12:21 PM 39.4547 -84.0531 97° East 211 243 8,600 1,068 Climbing Indianapolis Center
Sat 03:12:39 PM 39.4531 -84.0392 99° East 208 239 9,300 1,254 Climbing Indianapolis Center
Sat 03:13:28 PM 39.4381 -83.9403 101° East 332 382 10,000 382 Climbing Indianapolis Center
Sat 03:14:29 PM 39.4869 -83.9058 29° Northeast 281 323 10,000 -52 Level Indianapolis Center
Sat 03:15:24 PM 39.5128 -83.9767 295° West 214 246 9,900 -640 Descending Indianapolis Center
Sat 03:15:44 PM 39.5222 -83.9969 301° West 223 257 9,200 -2,459 Descending Indianapolis Center
Sat 03:16:25 PM 39.5544 -84.0361 317° Northwest 225 259 7,400 -2,516 Descending Indianapolis Center
Sat 03:16:46 PM 39.5686 -84.0556 313° West 228 262 6,600 -2,687 Descending Indianapolis Center
Sat 03:17:32 PM 39.6011 -84.1072 309° West 250 288 4,400 -2,516 Descending Indianapolis Center
Sat 03:17:48 PM 39.6122 -84.1225 313° West 234 269 4,000 -444 Descending Indianapolis Center
Sat 03:18:26 PM 39.6306 -84.1628 301° West 189 217 4,000  Level Indianapolis Center
Sat 03:18:50 PM 39.6411 -84.1819 306° West 215 247 4,000 -1,475 Level Indianapolis Center
Sat 03:19:27 PM 39.6314 -84.2033 239° Southwest 129 148 2,500 -1,935 Descending Indianapolis Center
Sat 03:19:52 PM 39.6142 -84.2125 202° Southwest 168 193 2,000 -1,200 Descending Indianapolis Center

Login

Don't have an account? Register now (free) for customized features, flight alerts, and more!